sensor_id;sensor_type;location;lat;lon;timestamp;pressure;altitude;pressure_sealevel;temperature
76898;BMP180;65856;52.178;21.176;2023-03-01T00:01:23;101766.40;;;-3.50
76898;BMP180;65856;52.178;21.176;2023-03-01T00:03:52;101766.40;;;-3.56
76898;BMP180;65856;52.178;21.176;2023-03-01T00:06:21;101767.60;;;-3.60
76898;BMP180;65856;52.178;21.176;2023-03-01T00:08:49;101765.00;;;-3.60
76898;BMP180;65856;52.178;21.176;2023-03-01T00:11:20;101763.40;;;-3.60
76898;BMP180;65856;52.178;21.176;2023-03-01T00:13:52;101767.80;;;-3.60
76898;BMP180;65856;52.178;21.176;2023-03-01T00:16:22;101763.40;;;-3.50
76898;BMP180;65856;52.178;21.176;2023-03-01T00:18:50;101756.60;;;-3.50
76898;BMP180;65856;52.178;21.176;2023-03-01T00:21:20;101759.00;;;-3.40
76898;BMP180;65856;52.178;21.176;2023-03-01T00:23:49;101760.20;;;-3.40
76898;BMP180;65856;52.178;21.176;2023-03-01T00:26:19;101759.60;;;-3.40
76898;BMP180;65856;52.178;21.176;2023-03-01T00:28:48;101752.80;;;-3.34
76898;BMP180;65856;52.178;21.176;2023-03-01T00:31:19;101753.00;;;-3.34
76898;BMP180;65856;52.178;21.176;2023-03-01T00:33:48;101751.60;;;-3.34
76898;BMP180;65856;52.178;21.176;2023-03-01T00:36:16;101746.00;;;-3.30
76898;BMP180;65856;52.178;21.176;2023-03-01T00:38:46;101741.60;;;-3.40
76898;BMP180;65856;52.178;21.176;2023-03-01T00:41:17;101740.00;;;-3.30
76898;BMP180;65856;52.178;21.176;2023-03-01T00:43:45;101736.80;;;-3.30
76898;BMP180;65856;52.178;21.176;2023-03-01T00:46:17;101747.80;;;-3.34
76898;BMP180;65856;52.178;21.176;2023-03-01T00:48:45;101745.60;;;-3.40
76898;BMP180;65856;52.178;21.176;2023-03-01T00:51:16;101744.00;;;-3.40
76898;BMP180;65856;52.178;21.176;2023-03-01T00:53:45;101746.80;;;-3.46
76898;BMP180;65856;52.178;21.176;2023-03-01T00:56:15;101744.20;;;-3.50
76898;BMP180;65856;52.178;21.176;2023-03-01T00:58:44;101739.40;;;-3.50
76898;BMP180;65856;52.178;21.176;2023-03-01T01:01:14;101742.20;;;-3.50
76898;BMP180;65856;52.178;21.176;2023-03-01T01:03:46;101735.80;;;-3.48
76898;BMP180;65856;52.178;21.176;2023-03-01T01:06:20;101731.20;;;-3.40
76898;BMP180;65856;52.178;21.176;2023-03-01T01:08:50;101729.60;;;-3.38
76898;BMP180;65856;52.178;21.176;2023-03-01T01:11:21;101723.60;;;-3.30
76898;BMP180;65856;52.178;21.176;2023-03-01T01:13:50;101719.60;;;-3.30
76898;BMP180;65856;52.178;21.176;2023-03-01T01:16:21;101720.60;;;-3.30
76898;BMP180;65856;52.178;21.176;2023-03-01T01:18:50;101716.60;;;-3.30
76898;BMP180;65856;52.178;21.176;2023-03-01T01:21:22;101715.40;;;-3.30
76898;BMP180;65856;52.178;21.176;2023-03-01T01:23:51;101712.20;;;-3.32
76898;BMP180;65856;52.178;21.176;2023-03-01T01:26:21;101710.20;;;-3.40
76898;BMP180;65856;52.178;21.176;2023-03-01T01:28:50;101707.60;;;-3.40
76898;BMP180;65856;52.178;21.176;2023-03-01T01:31:19;101708.20;;;-3.40
76898;BMP180;65856;52.178;21.176;2023-03-01T01:33:48;101702.20;;;-3.40
76898;BMP180;65856;52.178;21.176;2023-03-01T01:36:16;101698.40;;;-3.40
76898;BMP180;65856;52.178;21.176;2023-03-01T01:38:44;101702.60;;;-3.40
76898;BMP180;65856;52.178;21.176;2023-03-01T01:41:14;101696.80;;;-3.40
76898;BMP180;65856;52.178;21.176;2023-03-01T01:43:45;101697.40;;;-3.40
76898;BMP180;65856;52.178;21.176;2023-03-01T01:46:23;101700.80;;;-3.40
76898;BMP180;65856;52.178;21.176;2023-03-01T01:48:58;101700.80;;;-3.50
76898;BMP180;65856;52.178;21.176;2023-03-01T01:51:31;101699.20;;;-3.50
76898;BMP180;65856;52.178;21.176;2023-03-01T01:54:12;101691.60;;;-3.50
76898;BMP180;65856;52.178;21.176;2023-03-01T01:56:48;101686.40;;;-3.50
76898;BMP180;65856;52.178;21.176;2023-03-01T01:59:18;101692.40;;;-3.60
76898;BMP180;65856;52.178;21.176;2023-03-01T02:01:46;101688.80;;;-3.60
76898;BMP180;65856;52.178;21.176;2023-03-01T02:04:14;101686.20;;;-3.60
76898;BMP180;65856;52.178;21.176;2023-03-01T02:06:49;101686.40;;;-3.60
76898;BMP180;65856;52.178;21.176;2023-03-01T02:09:21;101689.20;;;-3.60
76898;BMP180;65856;52.178;21.176;2023-03-01T02:11:51;101687.20;;;-3.60
76898;BMP180;65856;52.178;21.176;2023-03-01T02:14:21;101685.60;;;-3.60
76898;BMP180;65856;52.178;21.176;2023-03-01T02:16:49;101686.00;;;-3.60
76898;BMP180;65856;52.178;21.176;2023-03-01T02:19:34;101686.60;;;-3.60
76898;BMP180;65856;52.178;21.176;2023-03-01T02:22:19;101692.20;;;-3.60
76898;BMP180;65856;52.178;21.176;2023-03-01T02:25:00;101685.20;;;-3.60
76898;BMP180;65856;52.178;21.176;2023-03-01T02:27:38;101675.80;;;-3.50
76898;BMP180;65856;52.178;21.176;2023-03-01T02:30:11;101674.40;;;-3.40
76898;BMP180;65856;52.178;21.176;2023-03-01T02:32:41;101666.40;;;-3.40
76898;BMP180;65856;52.178;21.176;2023-03-01T02:35:13;101661.80;;;-3.40
76898;BMP180;65856;52.178;21.176;2023-03-01T02:37:43;101661.00;;;-3.40
76898;BMP180;65856;52.178;21.176;2023-03-01T02:40:17;101657.80;;;-3.40
76898;BMP180;65856;52.178;21.176;2023-03-01T02:42:54;101657.20;;;-3.40
76898;BMP180;65856;52.178;21.176;2023-03-01T02:45:24;101656.00;;;-3.40
76898;BMP180;65856;52.178;21.176;2023-03-01T02:47:55;101655.80;;;-3.40
76898;BMP180;65856;52.178;21.176;2023-03-01T02:50:51;101659.80;;;-3.50
76898;BMP180;65856;52.178;21.176;2023-03-01T02:53:28;101659.20;;;-3.50
76898;BMP180;65856;52.178;21.176;2023-03-01T02:56:01;101658.60;;;-3.60
76898;BMP180;65856;52.178;21.176;2023-03-01T02:58:29;101659.40;;;-3.60
76898;BMP180;65856;52.178;21.176;2023-03-01T03:00:58;101659.40;;;-3.60
76898;BMP180;65856;52.178;21.176;2023-03-01T03:03:28;101655.40;;;-3.60
76898;BMP180;65856;52.178;21.176;2023-03-01T03:05:56;101640.20;;;-3.60
76898;BMP180;65856;52.178;21.176;2023-03-01T03:08:24;101633.60;;;-3.60
76898;BMP180;65856;52.178;21.176;2023-03-01T03:10:52;101630.60;;;-3.62
76898;BMP180;65856;52.178;21.176;2023-03-01T03:13:20;101633.60;;;-3.70
76898;BMP180;65856;52.178;21.176;2023-03-01T03:15:49;101633.60;;;-3.80
76898;BMP180;65856;52.178;21.176;2023-03-01T03:18:18;101629.80;;;-3.74
76898;BMP180;65856;52.178;21.176;2023-03-01T03:20:47;101622.40;;;-3.64
76898;BMP180;65856;52.178;21.176;2023-03-01T03:23:21;101618.20;;;-3.58
76898;BMP180;65856;52.178;21.176;2023-03-01T03:25:50;101611.40;;;-3.50
76898;BMP180;65856;52.178;21.176;2023-03-01T03:28:19;101610.80;;;-3.40
76898;BMP180;65856;52.178;21.176;2023-03-01T03:30:47;101613.40;;;-3.40
76898;BMP180;65856;52.178;21.176;2023-03-01T03:33:15;101617.40;;;-3.40
76898;BMP180;65856;52.178;21.176;2023-03-01T03:35:46;101616.40;;;-3.40
76898;BMP180;65856;52.178;21.176;2023-03-01T03:38:17;101613.80;;;-3.34
76898;BMP180;65856;52.178;21.176;2023-03-01T03:40:48;101609.80;;;-3.30
76898;BMP180;65856;52.178;21.176;2023-03-01T03:43:19;101612.20;;;-3.30
76898;BMP180;65856;52.178;21.176;2023-03-01T03:45:48;101621.00;;;-3.40
76898;BMP180;65856;52.178;21.176;2023-03-01T03:48:17;101620.60;;;-3.40
76898;BMP180;65856;52.178;21.176;2023-03-01T03:50:50;101616.40;;;-3.40
76898;BMP180;65856;52.178;21.176;2023-03-01T03:53:19;101617.00;;;-3.40
76898;BMP180;65856;52.178;21.176;2023-03-01T03:55:48;101605.40;;;-3.40
76898;BMP180;65856;52.178;21.176;2023-03-01T03:58:18;101595.00;;;-3.40
76898;BMP180;65856;52.178;21.176;2023-03-01T04:00:51;101596.20;;;-3.40
76898;BMP180;65856;52.178;21.176;2023-03-01T04:03:21;101601.20;;;-3.50
76898;BMP180;65856;52.178;21.176;2023-03-01T04:05:50;101599.20;;;-3.50
76898;BMP180;65856;52.178;21.176;2023-03-01T04:08:19;101593.40;;;-3.52
76898;BMP180;65856;52.178;21.176;2023-03-01T04:10:50;101589.40;;;-3.50
76898;BMP180;65856;52.178;21.176;2023-03-01T04:13:22;101585.00;;;-3.50
76898;BMP180;65856;52.178;21.176;2023-03-01T04:15:51;101583.40;;;-3.50
76898;BMP180;65856;52.178;21.176;2023-03-01T04:18:21;101582.00;;;-3.50
76898;BMP180;65856;52.178;21.176;2023-03-01T04:20:50;101586.60;;;-3.48
76898;BMP180;65856;52.178;21.176;2023-03-01T04:23:21;101589.60;;;-3.40
76898;BMP180;65856;52.178;21.176;2023-03-01T04:25:51;101599.40;;;-3.40
76898;BMP180;65856;52.178;21.176;2023-03-01T04:28:22;101599.80;;;-3.30
76898;BMP180;65856;52.178;21.176;2023-03-01T04:30:52;101595.60;;;-3.30
76898;BMP180;65856;52.178;21.176;2023-03-01T04:33:21;101585.40;;;-3.30
76898;BMP180;65856;52.178;21.176;2023-03-01T04:35:49;101579.00;;;-3.28
76898;BMP180;65856;52.178;21.176;2023-03-01T04:38:19;101578.60;;;-3.28
76898;BMP180;65856;52.178;21.176;2023-03-01T04:40:47;101569.60;;;-3.30
76898;BMP180;65856;52.178;21.176;2023-03-01T04:43:15;101561.40;;;-3.30
76898;BMP180;65856;52.178;21.176;2023-03-01T04:45:44;101562.20;;;-3.30
76898;BMP180;65856;52.178;21.176;2023-03-01T04:48:12;101561.40;;;-3.30
76898;BMP180;65856;52.178;21.176;2023-03-01T04:50:40;101555.60;;;-3.30
76898;BMP180;65856;52.178;21.176;2023-03-01T04:53:08;101554.80;;;-3.30
76898;BMP180;65856;52.178;21.176;2023-03-01T04:55:36;101553.20;;;-3.30
76898;BMP180;65856;52.178;21.176;2023-03-01T04:58:04;101559.40;;;-3.20
76898;BMP180;65856;52.178;21.176;2023-03-01T05:00:32;101565.60;;;-3.10
76898;BMP180;65856;52.178;21.176;2023-03-01T05:03:02;101572.60;;;-3.00
76898;BMP180;65856;52.178;21.176;2023-03-01T05:05:33;101562.20;;;-3.00
76898;BMP180;65856;52.178;21.176;2023-03-01T05:08:05;101559.20;;;-2.90
76898;BMP180;65856;52.178;21.176;2023-03-01T05:10:36;101562.20;;;-2.90
76898;BMP180;65856;52.178;21.176;2023-03-01T05:13:06;101565.40;;;-2.80
76898;BMP180;65856;52.178;21.176;2023-03-01T05:15:34;101574.20;;;-2.70
76898;BMP180;65856;52.178;21.176;2023-03-01T05:18:04;101574.40;;;-2.62
76898;BMP180;65856;52.178;21.176;2023-03-01T05:20:34;101576.60;;;-2.60
76898;BMP180;65856;52.178;21.176;2023-03-01T05:23:04;101574.80;;;-2.60
76898;BMP180;65856;52.178;21.176;2023-03-01T05:25:34;101578.00;;;-2.50
76898;BMP180;65856;52.178;21.176;2023-03-01T05:28:03;101580.60;;;-2.40
76898;BMP180;65856;52.178;21.176;2023-03-01T05:30:32;101583.00;;;-2.50
76898;BMP180;65856;52.178;21.176;2023-03-01T05:33:01;101587.60;;;-2.60
76898;BMP180;65856;52.178;21.176;2023-03-01T05:35:31;101594.60;;;-2.60
76898;BMP180;65856;52.178;21.176;2023-03-01T05:38:00;101601.80;;;-2.60
76898;BMP180;65856;52.178;21.176;2023-03-01T05:40:28;101607.80;;;-2.60
76898;BMP180;65856;52.178;21.176;2023-03-01T05:42:57;101604.80;;;-2.60
76898;BMP180;65856;52.178;21.176;2023-03-01T05:45:27;101601.60;;;-2.60
76898;BMP180;65856;52.178;21.176;2023-03-01T05:47:55;101604.60;;;-2.60
76898;BMP180;65856;52.178;21.176;2023-03-01T05:50:26;101604.60;;;-2.68
76898;BMP180;65856;52.178;21.176;2023-03-01T05:52:59;101603.80;;;-2.70
76898;BMP180;65856;52.178;21.176;2023-03-01T05:55:29;101611.60;;;-2.64
76898;BMP180;65856;52.178;21.176;2023-03-01T05:58:00;101609.60;;;-2.68
76898;BMP180;65856;52.178;21.176;2023-03-01T06:00:30;101610.60;;;-2.60
76898;BMP180;65856;52.178;21.176;2023-03-01T06:02:59;101615.00;;;-2.60
76898;BMP180;65856;52.178;21.176;2023-03-01T06:05:29;101613.60;;;-2.50
76898;BMP180;65856;52.178;21.176;2023-03-01T06:08:00;101604.80;;;-2.40
76898;BMP180;65856;52.178;21.176;2023-03-01T06:10:29;101607.40;;;-2.40
76898;BMP180;65856;52.178;21.176;2023-03-01T06:12:57;101604.60;;;-2.30
76898;BMP180;65856;52.178;21.176;2023-03-01T06:15:26;101598.00;;;-2.20
76898;BMP180;65856;52.178;21.176;2023-03-01T06:17:55;101597.00;;;-2.10
76898;BMP180;65856;52.178;21.176;2023-03-01T06:20:28;101600.20;;;-1.94
76898;BMP180;65856;52.178;21.176;2023-03-01T06:22:55;101595.40;;;-1.80
76898;BMP180;65856;52.178;21.176;2023-03-01T06:25:26;101599.80;;;-1.70
76898;BMP180;65856;52.178;21.176;2023-03-01T06:27:55;101599.60;;;-1.50
76898;BMP180;65856;52.178;21.176;2023-03-01T06:30:26;101596.20;;;-1.30
76898;BMP180;65856;52.178;21.176;2023-03-01T06:32:54;101607.80;;;-1.10
76898;BMP180;65856;52.178;21.176;2023-03-01T06:35:28;101609.00;;;-0.84
76898;BMP180;65856;52.178;21.176;2023-03-01T06:38:00;101604.80;;;-0.60
76898;BMP180;65856;52.178;21.176;2023-03-01T06:40:29;101612.80;;;-0.40
76898;BMP180;65856;52.178;21.176;2023-03-01T06:42:58;101613.80;;;-0.20
76898;BMP180;65856;52.178;21.176;2023-03-01T06:45:27;101605.80;;;-0.12
76898;BMP180;65856;52.178;21.176;2023-03-01T06:48:03;101607.20;;;0.08
76898;BMP180;65856;52.178;21.176;2023-03-01T06:50:31;101614.40;;;0.20
76898;BMP180;65856;52.178;21.176;2023-03-01T06:53:00;101614.00;;;0.40
76898;BMP180;65856;52.178;21.176;2023-03-01T06:55:28;101610.00;;;0.60
76898;BMP180;65856;52.178;21.176;2023-03-01T06:57:57;101607.40;;;0.80
76898;BMP180;65856;52.178;21.176;2023-03-01T07:00:27;101612.40;;;0.98
76898;BMP180;65856;52.178;21.176;2023-03-01T07:02:58;101610.60;;;1.18
76898;BMP180;65856;52.178;21.176;2023-03-01T07:05:27;101616.20;;;1.30
76898;BMP180;65856;52.178;21.176;2023-03-01T07:07:55;101623.80;;;1.50
76898;BMP180;65856;52.178;21.176;2023-03-01T07:10:24;101612.80;;;1.70
76898;BMP180;65856;52.178;21.176;2023-03-01T07:12:55;101613.40;;;1.80
76898;BMP180;65856;52.178;21.176;2023-03-01T07:15:23;101613.80;;;2.00
76898;BMP180;65856;52.178;21.176;2023-03-01T07:17:51;101613.00;;;2.18
76898;BMP180;65856;52.178;21.176;2023-03-01T07:20:20;101606.20;;;2.30
76898;BMP180;65856;52.178;21.176;2023-03-01T07:22:52;101611.20;;;2.50
76898;BMP180;65856;52.178;21.176;2023-03-01T07:25:21;101614.80;;;2.60
76898;BMP180;65856;52.178;21.176;2023-03-01T07:27:51;101605.20;;;2.94
76898;BMP180;65856;52.178;21.176;2023-03-01T07:30:20;101592.80;;;3.30
76898;BMP180;65856;52.178;21.176;2023-03-01T07:32:48;101596.00;;;3.50
76898;BMP180;65856;52.178;21.176;2023-03-01T07:35:17;101600.60;;;3.74
76898;BMP180;65856;52.178;21.176;2023-03-01T07:37:45;101597.00;;;3.98
76898;BMP180;65856;52.178;21.176;2023-03-01T07:40:14;101590.80;;;4.18
76898;BMP180;65856;52.178;21.176;2023-03-01T07:42:42;101593.40;;;4.30
76898;BMP180;65856;52.178;21.176;2023-03-01T07:45:12;101591.00;;;4.46
76898;BMP180;65856;52.178;21.176;2023-03-01T07:47:40;101590.20;;;4.62
76898;BMP180;65856;52.178;21.176;2023-03-01T07:50:11;101589.60;;;4.80
76898;BMP180;65856;52.178;21.176;2023-03-01T07:52:40;101592.40;;;4.90
76898;BMP180;65856;52.178;21.176;2023-03-01T07:55:09;101595.20;;;5.00
76898;BMP180;65856;52.178;21.176;2023-03-01T07:57:38;101599.00;;;5.00
76898;BMP180;65856;52.178;21.176;2023-03-01T08:00:10;101596.40;;;5.10
76898;BMP180;65856;52.178;21.176;2023-03-01T08:02:39;101591.00;;;5.28
76898;BMP180;65856;52.178;21.176;2023-03-01T08:05:09;101598.60;;;5.58
76898;BMP180;65856;52.178;21.176;2023-03-01T08:07:37;101598.00;;;5.80
76898;BMP180;65856;52.178;21.176;2023-03-01T08:10:08;101593.80;;;5.90
76898;BMP180;65856;52.178;21.176;2023-03-01T08:12:36;101591.80;;;5.90
76898;BMP180;65856;52.178;21.176;2023-03-01T08:15:06;101600.60;;;6.10
76898;BMP180;65856;52.178;21.176;2023-03-01T08:17:35;101602.60;;;6.20
76898;BMP180;65856;52.178;21.176;2023-03-01T08:20:04;101612.00;;;6.30
76898;BMP180;65856;52.178;21.176;2023-03-01T08:22:34;101611.40;;;6.40
76898;BMP180;65856;52.178;21.176;2023-03-01T08:25:02;101615.80;;;6.40
76898;BMP180;65856;52.178;21.176;2023-03-01T08:27:30;101601.80;;;6.40
76898;BMP180;65856;52.178;21.176;2023-03-01T08:29:58;101613.00;;;6.58
76898;BMP180;65856;52.178;21.176;2023-03-01T08:32:26;101609.40;;;6.80
76898;BMP180;65856;52.178;21.176;2023-03-01T08:34:55;101611.20;;;7.00
76898;BMP180;65856;52.178;21.176;2023-03-01T08:37:23;101601.80;;;7.00
76898;BMP180;65856;52.178;21.176;2023-03-01T08:39:51;101591.80;;;7.16
76898;BMP180;65856;52.178;21.176;2023-03-01T08:42:19;101594.60;;;7.30
76898;BMP180;65856;52.178;21.176;2023-03-01T08:44:47;101596.00;;;7.50
76898;BMP180;65856;52.178;21.176;2023-03-01T08:47:16;101593.40;;;7.72
76898;BMP180;65856;52.178;21.176;2023-03-01T08:49:45;101600.00;;;7.88
76898;BMP180;65856;52.178;21.176;2023-03-01T08:52:13;101603.80;;;7.90
76898;BMP180;65856;52.178;21.176;2023-03-01T08:54:41;101613.80;;;7.90
76898;BMP180;65856;52.178;21.176;2023-03-01T08:57:09;101614.60;;;7.90
76898;BMP180;65856;52.178;21.176;2023-03-01T08:59:37;101613.00;;;7.90
76898;BMP180;65856;52.178;21.176;2023-03-01T09:02:05;101612.40;;;7.90
76898;BMP180;65856;52.178;21.176;2023-03-01T09:04:33;101612.40;;;7.90
76898;BMP180;65856;52.178;21.176;2023-03-01T09:07:01;101611.60;;;7.90
76898;BMP180;65856;52.178;21.176;2023-03-01T09:09:29;101619.20;;;8.00
76898;BMP180;65856;52.178;21.176;2023-03-01T09:11:58;101619.80;;;7.90
76898;BMP180;65856;52.178;21.176;2023-03-01T09:14:26;101620.20;;;7.80
76898;BMP180;65856;52.178;21.176;2023-03-01T09:16:54;101617.00;;;7.72
76898;BMP180;65856;52.178;21.176;2023-03-01T09:19:22;101614.40;;;7.80
76898;BMP180;65856;52.178;21.176;2023-03-01T09:21:50;101608.40;;;8.00
76898;BMP180;65856;52.178;21.176;2023-03-01T09:24:22;101604.80;;;8.14
76898;BMP180;65856;52.178;21.176;2023-03-01T09:26:53;101603.40;;;8.20
76898;BMP180;65856;52.178;21.176;2023-03-01T09:29:21;101598.00;;;8.10
76898;BMP180;65856;52.178;21.176;2023-03-01T09:31:50;101596.60;;;8.10
76898;BMP180;65856;52.178;21.176;2023-03-01T09:34:18;101596.20;;;8.04
76898;BMP180;65856;52.178;21.176;2023-03-01T09:36:50;101589.00;;;7.90
76898;BMP180;65856;52.178;21.176;2023-03-01T09:39:19;101589.60;;;7.70
76898;BMP180;65856;52.178;21.176;2023-03-01T09:42:00;101596.00;;;7.72
76898;BMP180;65856;52.178;21.176;2023-03-01T09:44:38;101594.80;;;7.80
76898;BMP180;65856;52.178;21.176;2023-03-01T09:47:16;101593.20;;;7.80
76898;BMP180;65856;52.178;21.176;2023-03-01T09:49:52;101589.20;;;7.70
76898;BMP180;65856;52.178;21.176;2023-03-01T09:52:36;101592.00;;;7.70
76898;BMP180;65856;52.178;21.176;2023-03-01T09:55:13;101586.80;;;7.80
76898;BMP180;65856;52.178;21.176;2023-03-01T09:57:49;101588.80;;;7.90
76898;BMP180;65856;52.178;21.176;2023-03-01T10:00:28;101584.40;;;8.00
76898;BMP180;65856;52.178;21.176;2023-03-01T10:03:11;101581.60;;;8.10
76898;BMP180;65856;52.178;21.176;2023-03-01T10:05:50;101581.20;;;8.00
76898;BMP180;65856;52.178;21.176;2023-03-01T10:08:33;101576.60;;;8.10
76898;BMP180;65856;52.178;21.176;2023-03-01T10:11:05;101573.20;;;8.20
76898;BMP180;65856;52.178;21.176;2023-03-01T10:13:47;101574.40;;;8.20
76898;BMP180;65856;52.178;21.176;2023-03-01T10:16:26;101562.00;;;8.24
76898;BMP180;65856;52.178;21.176;2023-03-01T10:19:00;101558.00;;;8.20
76898;BMP180;65856;52.178;21.176;2023-03-01T10:21:30;101548.80;;;8.20
76898;BMP180;65856;52.178;21.176;2023-03-01T10:24:10;101551.80;;;8.10
76898;BMP180;65856;52.178;21.176;2023-03-01T10:26:50;101550.80;;;8.10
76898;BMP180;65856;52.178;21.176;2023-03-01T10:29:31;101545.60;;;8.10
76898;BMP180;65856;52.178;21.176;2023-03-01T10:31:59;101548.80;;;8.20
76898;BMP180;65856;52.178;21.176;2023-03-01T10:34:31;101552.40;;;8.20
76898;BMP180;65856;52.178;21.176;2023-03-01T10:37:10;101551.60;;;8.20
76898;BMP180;65856;52.178;21.176;2023-03-01T10:39:57;101550.60;;;8.22
76898;BMP180;65856;52.178;21.176;2023-03-01T10:42:31;101549.40;;;8.30
76898;BMP180;65856;52.178;21.176;2023-03-01T10:45:15;101540.80;;;8.22
76898;BMP180;65856;52.178;21.176;2023-03-01T10:47:44;101542.40;;;8.30
76898;BMP180;65856;52.178;21.176;2023-03-01T10:50:22;101540.60;;;8.28
76898;BMP180;65856;52.178;21.176;2023-03-01T10:53:00;101544.20;;;8.30
76898;BMP180;65856;52.178;21.176;2023-03-01T10:55:34;101544.00;;;8.30
76898;BMP180;65856;52.178;21.176;2023-03-01T10:58:18;101540.40;;;8.34
76898;BMP180;65856;52.178;21.176;2023-03-01T11:00:51;101538.60;;;8.30
76898;BMP180;65856;52.178;21.176;2023-03-01T11:03:24;101541.00;;;8.30
76898;BMP180;65856;52.178;21.176;2023-03-01T11:06:02;101540.60;;;8.30
76898;BMP180;65856;52.178;21.176;2023-03-01T11:08:40;101541.60;;;8.34
76898;BMP180;65856;52.178;21.176;2023-03-01T11:11:29;101535.80;;;8.34
76898;BMP180;65856;52.178;21.176;2023-03-01T11:14:01;101536.20;;;8.30
76898;BMP180;65856;52.178;21.176;2023-03-01T11:16:34;101533.40;;;8.30
76898;BMP180;65856;52.178;21.176;2023-03-01T11:19:17;101535.60;;;8.26
76898;BMP180;65856;52.178;21.176;2023-03-01T11:21:58;101532.40;;;8.20
76898;BMP180;65856;52.178;21.176;2023-03-01T11:24:36;101529.00;;;8.30
76898;BMP180;65856;52.178;21.176;2023-03-01T11:27:19;101525.40;;;8.30
76898;BMP180;65856;52.178;21.176;2023-03-01T11:29:54;101518.20;;;8.30
76898;BMP180;65856;52.178;21.176;2023-03-01T11:32:27;101513.20;;;8.30
76898;BMP180;65856;52.178;21.176;2023-03-01T11:35:03;101516.40;;;8.28
76898;BMP180;65856;52.178;21.176;2023-03-01T11:37:41;101512.00;;;8.20
76898;BMP180;65856;52.178;21.176;2023-03-01T11:40:23;101507.60;;;8.10
76898;BMP180;65856;52.178;21.176;2023-03-01T11:43:16;101510.60;;;8.10
76898;BMP180;65856;52.178;21.176;2023-03-01T11:48:53;101507.60;;;8.00
76898;BMP180;65856;52.178;21.176;2023-03-01T11:51:37;101520.20;;;7.90
76898;BMP180;65856;52.178;21.176;2023-03-01T11:54:20;101518.60;;;7.80
76898;BMP180;65856;52.178;21.176;2023-03-01T11:56:57;101516.40;;;7.80
76898;BMP180;65856;52.178;21.176;2023-03-01T12:00:18;101508.80;;;7.80
76898;BMP180;65856;52.178;21.176;2023-03-01T12:06:28;101517.40;;;7.70
76898;BMP180;65856;52.178;21.176;2023-03-01T12:09:24;101513.00;;;7.70
76898;BMP180;65856;52.178;21.176;2023-03-01T12:12:26;101513.00;;;7.70
76898;BMP180;65856;52.178;21.176;2023-03-01T12:15:15;101516.80;;;7.64
76898;BMP180;65856;52.178;21.176;2023-03-01T12:18:09;101515.00;;;7.60
76898;BMP180;65856;52.178;21.176;2023-03-01T12:20:47;101517.20;;;7.60
76898;BMP180;65856;52.178;21.176;2023-03-01T12:23:40;101512.60;;;7.50
76898;BMP180;65856;52.178;21.176;2023-03-01T12:26:27;101510.80;;;7.50
76898;BMP180;65856;52.178;21.176;2023-03-01T12:29:20;101505.80;;;7.50
76898;BMP180;65856;52.178;21.176;2023-03-01T12:32:23;101499.20;;;7.54
76898;BMP180;65856;52.178;21.176;2023-03-01T12:35:37;101497.60;;;7.50
76898;BMP180;65856;52.178;21.176;2023-03-01T12:38:23;101491.60;;;7.50
76898;BMP180;65856;52.178;21.176;2023-03-01T12:41:37;101492.00;;;7.44
76898;BMP180;65856;52.178;21.176;2023-03-01T12:44:32;101490.00;;;7.40
76898;BMP180;65856;52.178;21.176;2023-03-01T12:47:18;101490.60;;;7.40
76898;BMP180;65856;52.178;21.176;2023-03-01T12:49:54;101483.60;;;7.40
76898;BMP180;65856;52.178;21.176;2023-03-01T12:52:33;101480.60;;;7.40
76898;BMP180;65856;52.178;21.176;2023-03-01T12:55:18;101475.40;;;7.40
76898;BMP180;65856;52.178;21.176;2023-03-01T12:58:00;101478.00;;;7.40
76898;BMP180;65856;52.178;21.176;2023-03-01T13:00:39;101471.60;;;7.50
76898;BMP180;65856;52.178;21.176;2023-03-01T13:03:21;101470.60;;;7.50
76898;BMP180;65856;52.178;21.176;2023-03-01T13:06:07;101477.40;;;7.50
76898;BMP180;65856;52.178;21.176;2023-03-01T13:08:46;101468.60;;;7.50
76898;BMP180;65856;52.178;21.176;2023-03-01T13:11:20;101470.40;;;7.50
76898;BMP180;65856;52.178;21.176;2023-03-01T13:13:49;101470.20;;;7.50
76898;BMP180;65856;52.178;21.176;2023-03-01T13:16:40;101471.60;;;7.50
76898;BMP180;65856;52.178;21.176;2023-03-01T13:19:16;101471.60;;;7.52
76898;BMP180;65856;52.178;21.176;2023-03-01T13:21:45;101471.20;;;7.50
76898;BMP180;65856;52.178;21.176;2023-03-01T13:24:35;101469.40;;;7.50
76898;BMP180;65856;52.178;21.176;2023-03-01T13:27:23;101467.40;;;7.50
76898;BMP180;65856;52.178;21.176;2023-03-01T13:29:54;101456.60;;;7.50
76898;BMP180;65856;52.178;21.176;2023-03-01T13:32:24;101457.60;;;7.50
76898;BMP180;65856;52.178;21.176;2023-03-01T13:34:55;101448.20;;;7.50
76898;BMP180;65856;52.178;21.176;2023-03-01T13:37:31;101448.20;;;7.58
76898;BMP180;65856;52.178;21.176;2023-03-01T13:40:56;101444.40;;;7.60
76898;BMP180;65856;52.178;21.176;2023-03-01T13:42:56;101442.00;;;7.60
76898;BMP180;65856;52.178;21.176;2023-03-01T13:45:35;101442.60;;;7.60
76898;BMP180;65856;52.178;21.176;2023-03-01T13:48:11;101439.00;;;7.70
76898;BMP180;65856;52.178;21.176;2023-03-01T13:50:50;101441.00;;;7.70
76898;BMP180;65856;52.178;21.176;2023-03-01T13:53:24;101438.00;;;7.78
76898;BMP180;65856;52.178;21.176;2023-03-01T13:55:58;101435.60;;;7.80
76898;BMP180;65856;52.178;21.176;2023-03-01T13:58:31;101437.80;;;7.80
76898;BMP180;65856;52.178;21.176;2023-03-01T14:01:04;101436.80;;;7.80
76898;BMP180;65856;52.178;21.176;2023-03-01T14:03:39;101440.80;;;7.80
76898;BMP180;65856;52.178;21.176;2023-03-01T14:06:14;101431.60;;;7.70
76898;BMP180;65856;52.178;21.176;2023-03-01T14:08:47;101427.60;;;7.70
76898;BMP180;65856;52.178;21.176;2023-03-01T14:11:56;101421.00;;;7.60
76898;BMP180;65856;52.178;21.176;2023-03-01T14:14:38;101430.80;;;7.60
76898;BMP180;65856;52.178;21.176;2023-03-01T14:17:36;101431.60;;;7.60
76898;BMP180;65856;52.178;21.176;2023-03-01T14:20:17;101429.20;;;7.60
76898;BMP180;65856;52.178;21.176;2023-03-01T14:22:47;101431.20;;;7.60
76898;BMP180;65856;52.178;21.176;2023-03-01T14:25:24;101425.60;;;7.58
76898;BMP180;65856;52.178;21.176;2023-03-01T14:28:14;101415.80;;;7.60
76898;BMP180;65856;52.178;21.176;2023-03-01T14:30:46;101414.00;;;7.60
76898;BMP180;65856;52.178;21.176;2023-03-01T14:33:26;101412.40;;;7.60